sensor_id;sensor_type;location;lat;lon;timestamp;P1;durP1;ratioP1;P2;durP2;ratioP2
16516;SDS011;8371;52.272;9.746;2023-11-19T00:00:25;0.30;;;0.30;;
16516;SDS011;8371;52.272;9.746;2023-11-19T00:02:51;0.30;;;0.30;;
16516;SDS011;8371;52.272;9.746;2023-11-19T00:05:17;0.20;;;0.20;;
16516;SDS011;8371;52.272;9.746;2023-11-19T00:07:43;0.20;;;0.20;;
16516;SDS011;8371;52.272;9.746;2023-11-19T00:10:10;0.20;;;0.20;;
16516;SDS011;8371;52.272;9.746;2023-11-19T00:12:38;0.20;;;0.20;;
16516;SDS011;8371;52.272;9.746;2023-11-19T00:15:07;0.20;;;0.20;;
16516;SDS011;8371;52.272;9.746;2023-11-19T00:17:39;0.20;;;0.20;;
16516;SDS011;8371;52.272;9.746;2023-11-19T00:20:09;0.20;;;0.20;;
16516;SDS011;8371;52.272;9.746;2023-11-19T00:22:35;1.53;;;0.27;;
16516;SDS011;8371;52.272;9.746;2023-11-19T00:25:00;0.20;;;0.20;;
16516;SDS011;8371;52.272;9.746;2023-11-19T00:27:27;0.20;;;0.20;;
16516;SDS011;8371;52.272;9.746;2023-11-19T00:29:53;0.10;;;0.10;;
16516;SDS011;8371;52.272;9.746;2023-11-19T00:32:18;0.30;;;0.30;;
16516;SDS011;8371;52.272;9.746;2023-11-19T00:34:44;0.30;;;0.30;;
16516;SDS011;8371;52.272;9.746;2023-11-19T00:37:10;0.30;;;0.30;;
16516;SDS011;8371;52.272;9.746;2023-11-19T00:39:36;0.97;;;0.20;;
16516;SDS011;8371;52.272;9.746;2023-11-19T00:42:02;0.30;;;0.30;;
16516;SDS011;8371;52.272;9.746;2023-11-19T00:44:27;0.10;;;0.10;;
16516;SDS011;8371;52.272;9.746;2023-11-19T00:46:53;1.17;;;0.30;;
16516;SDS011;8371;52.272;9.746;2023-11-19T00:49:19;0.20;;;0.20;;
16516;SDS011;8371;52.272;9.746;2023-11-19T00:51:45;0.40;;;0.40;;
16516;SDS011;8371;52.272;9.746;2023-11-19T00:54:11;0.20;;;0.20;;
16516;SDS011;8371;52.272;9.746;2023-11-19T00:56:36;0.20;;;0.20;;
16516;SDS011;8371;52.272;9.746;2023-11-19T00:59:02;0.30;;;0.30;;
16516;SDS011;8371;52.272;9.746;2023-11-19T01:01:29;0.30;;;0.30;;
16516;SDS011;8371;52.272;9.746;2023-11-19T01:03:55;0.20;;;0.20;;
16516;SDS011;8371;52.272;9.746;2023-11-19T01:06:29;0.20;;;0.20;;
16516;SDS011;8371;52.272;9.746;2023-11-19T01:08:55;0.20;;;0.20;;
16516;SDS011;8371;52.272;9.746;2023-11-19T01:11:25;0.20;;;0.20;;
16516;SDS011;8371;52.272;9.746;2023-11-19T01:13:51;0.10;;;0.10;;
16516;SDS011;8371;52.272;9.746;2023-11-19T01:16:18;0.10;;;0.10;;
16516;SDS011;8371;52.272;9.746;2023-11-19T01:18:44;1.40;;;0.13;;
16516;SDS011;8371;52.272;9.746;2023-11-19T01:21:12;0.20;;;0.20;;
16516;SDS011;8371;52.272;9.746;2023-11-19T01:23:40;0.20;;;0.20;;
16516;SDS011;8371;52.272;9.746;2023-11-19T01:26:08;0.20;;;0.10;;
16516;SDS011;8371;52.272;9.746;2023-11-19T01:28:35;0.10;;;0.10;;
16516;SDS011;8371;52.272;9.746;2023-11-19T01:31:02;0.10;;;0.10;;
16516;SDS011;8371;52.272;9.746;2023-11-19T01:33:28;0.10;;;0.10;;
16516;SDS011;8371;52.272;9.746;2023-11-19T01:35:55;0.10;;;0.10;;
16516;SDS011;8371;52.272;9.746;2023-11-19T01:38:23;0.10;;;0.10;;
16516;SDS011;8371;52.272;9.746;2023-11-19T01:40:49;0.10;;;0.10;;
16516;SDS011;8371;52.272;9.746;2023-11-19T01:43:30;1.03;;;0.10;;
16516;SDS011;8371;52.272;9.746;2023-11-19T01:45:58;0.17;;;0.17;;
16516;SDS011;8371;52.272;9.746;2023-11-19T01:48:24;0.10;;;0.10;;
16516;SDS011;8371;52.272;9.746;2023-11-19T01:50:50;0.20;;;0.20;;
16516;SDS011;8371;52.272;9.746;2023-11-19T01:53:17;0.20;;;0.20;;
16516;SDS011;8371;52.272;9.746;2023-11-19T01:55:44;0.20;;;0.20;;
16516;SDS011;8371;52.272;9.746;2023-11-19T01:58:14;0.10;;;0.10;;
16516;SDS011;8371;52.272;9.746;2023-11-19T02:00:40;0.30;;;0.30;;
16516;SDS011;8371;52.272;9.746;2023-11-19T02:03:06;0.10;;;0.10;;
16516;SDS011;8371;52.272;9.746;2023-11-19T02:05:33;0.00;;;0.00;;
16516;SDS011;8371;52.272;9.746;2023-11-19T02:08:00;0.20;;;0.20;;
16516;SDS011;8371;52.272;9.746;2023-11-19T02:10:26;0.20;;;0.20;;
16516;SDS011;8371;52.272;9.746;2023-11-19T02:12:52;0.17;;;0.13;;
16516;SDS011;8371;52.272;9.746;2023-11-19T02:15:18;0.10;;;0.10;;
16516;SDS011;8371;52.272;9.746;2023-11-19T02:17:44;0.10;;;0.10;;
16516;SDS011;8371;52.272;9.746;2023-11-19T02:20:10;0.10;;;0.10;;
16516;SDS011;8371;52.272;9.746;2023-11-19T02:22:38;0.03;;;0.03;;
16516;SDS011;8371;52.272;9.746;2023-11-19T02:25:04;0.10;;;0.10;;
16516;SDS011;8371;52.272;9.746;2023-11-19T02:27:56;0.17;;;0.17;;
16516;SDS011;8371;52.272;9.746;2023-11-19T02:30:26;0.07;;;0.07;;
16516;SDS011;8371;52.272;9.746;2023-11-19T02:32:58;0.10;;;0.10;;
16516;SDS011;8371;52.272;9.746;2023-11-19T02:35:26;0.00;;;0.00;;
16516;SDS011;8371;52.272;9.746;2023-11-19T02:37:54;0.10;;;0.10;;
16516;SDS011;8371;52.272;9.746;2023-11-19T02:40:19;0.07;;;0.00;;
16516;SDS011;8371;52.272;9.746;2023-11-19T02:42:47;0.10;;;0.10;;
16516;SDS011;8371;52.272;9.746;2023-11-19T02:45:13;0.97;;;0.10;;
16516;SDS011;8371;52.272;9.746;2023-11-19T02:47:40;0.00;;;0.00;;
16516;SDS011;8371;52.272;9.746;2023-11-19T02:50:08;0.07;;;0.07;;
16516;SDS011;8371;52.272;9.746;2023-11-19T02:52:36;0.07;;;0.07;;
16516;SDS011;8371;52.272;9.746;2023-11-19T02:55:03;0.00;;;0.00;;
16516;SDS011;8371;52.272;9.746;2023-11-19T02:57:31;0.10;;;0.10;;
16516;SDS011;8371;52.272;9.746;2023-11-19T02:59:57;0.10;;;0.10;;
16516;SDS011;8371;52.272;9.746;2023-11-19T03:02:24;0.00;;;0.00;;
16516;SDS011;8371;52.272;9.746;2023-11-19T03:04:51;0.10;;;0.10;;
16516;SDS011;8371;52.272;9.746;2023-11-19T03:07:17;0.10;;;0.10;;
16516;SDS011;8371;52.272;9.746;2023-11-19T03:09:43;0.10;;;0.10;;
16516;SDS011;8371;52.272;9.746;2023-11-19T03:12:09;0.10;;;0.10;;
16516;SDS011;8371;52.272;9.746;2023-11-19T03:14:36;0.10;;;0.10;;
16516;SDS011;8371;52.272;9.746;2023-11-19T03:17:01;0.10;;;0.10;;
16516;SDS011;8371;52.272;9.746;2023-11-19T03:19:28;0.27;;;0.27;;
16516;SDS011;8371;52.272;9.746;2023-11-19T03:21:54;0.10;;;0.10;;
16516;SDS011;8371;52.272;9.746;2023-11-19T03:24:20;0.00;;;0.00;;
16516;SDS011;8371;52.272;9.746;2023-11-19T03:26:49;0.20;;;0.10;;
16516;SDS011;8371;52.272;9.746;2023-11-19T03:29:24;0.00;;;0.00;;
16516;SDS011;8371;52.272;9.746;2023-11-19T03:31:51;0.13;;;0.13;;
16516;SDS011;8371;52.272;9.746;2023-11-19T03:34:17;0.17;;;0.17;;
16516;SDS011;8371;52.272;9.746;2023-11-19T03:36:42;0.17;;;0.17;;
16516;SDS011;8371;52.272;9.746;2023-11-19T03:39:08;0.27;;;0.27;;
16516;SDS011;8371;52.272;9.746;2023-11-19T03:41:34;0.20;;;0.20;;
16516;SDS011;8371;52.272;9.746;2023-11-19T03:43:59;0.10;;;0.10;;
16516;SDS011;8371;52.272;9.746;2023-11-19T03:46:25;0.10;;;0.10;;
16516;SDS011;8371;52.272;9.746;2023-11-19T03:48:51;1.93;;;0.30;;
16516;SDS011;8371;52.272;9.746;2023-11-19T03:51:16;0.73;;;0.20;;
16516;SDS011;8371;52.272;9.746;2023-11-19T03:53:43;0.10;;;0.10;;
16516;SDS011;8371;52.272;9.746;2023-11-19T03:56:09;0.20;;;0.20;;
16516;SDS011;8371;52.272;9.746;2023-11-19T03:58:36;0.00;;;0.00;;
16516;SDS011;8371;52.272;9.746;2023-11-19T04:01:03;0.20;;;0.20;;
16516;SDS011;8371;52.272;9.746;2023-11-19T04:03:30;0.10;;;0.10;;
16516;SDS011;8371;52.272;9.746;2023-11-19T04:05:55;0.20;;;0.20;;
16516;SDS011;8371;52.272;9.746;2023-11-19T04:08:21;0.30;;;0.30;;
16516;SDS011;8371;52.272;9.746;2023-11-19T04:10:48;0.10;;;0.10;;
16516;SDS011;8371;52.272;9.746;2023-11-19T04:13:13;0.27;;;0.27;;
16516;SDS011;8371;52.272;9.746;2023-11-19T04:15:39;0.47;;;0.47;;
16516;SDS011;8371;52.272;9.746;2023-11-19T04:18:05;0.47;;;0.47;;
16516;SDS011;8371;52.272;9.746;2023-11-19T04:20:30;0.40;;;0.40;;
16516;SDS011;8371;52.272;9.746;2023-11-19T04:22:57;0.40;;;0.40;;
16516;SDS011;8371;52.272;9.746;2023-11-19T04:25:25;0.40;;;0.40;;
16516;SDS011;8371;52.272;9.746;2023-11-19T04:27:51;0.40;;;0.40;;
16516;SDS011;8371;52.272;9.746;2023-11-19T04:30:17;0.40;;;0.40;;
16516;SDS011;8371;52.272;9.746;2023-11-19T04:32:44;0.30;;;0.30;;
16516;SDS011;8371;52.272;9.746;2023-11-19T04:35:10;0.40;;;0.40;;
16516;SDS011;8371;52.272;9.746;2023-11-19T04:37:36;0.50;;;0.50;;
16516;SDS011;8371;52.272;9.746;2023-11-19T04:40:03;0.50;;;0.50;;
16516;SDS011;8371;52.272;9.746;2023-11-19T04:42:29;0.37;;;0.37;;
16516;SDS011;8371;52.272;9.746;2023-11-19T04:44:55;0.60;;;0.60;;
16516;SDS011;8371;52.272;9.746;2023-11-19T04:47:21;0.80;;;0.60;;
16516;SDS011;8371;52.272;9.746;2023-11-19T04:49:46;0.90;;;0.70;;
16516;SDS011;8371;52.272;9.746;2023-11-19T04:52:12;0.80;;;0.80;;
16516;SDS011;8371;52.272;9.746;2023-11-19T04:54:41;0.80;;;0.80;;
16516;SDS011;8371;52.272;9.746;2023-11-19T04:57:08;0.87;;;0.87;;
16516;SDS011;8371;52.272;9.746;2023-11-19T04:59:38;0.60;;;0.60;;
16516;SDS011;8371;52.272;9.746;2023-11-19T05:02:04;1.73;;;0.70;;
16516;SDS011;8371;52.272;9.746;2023-11-19T05:04:30;0.90;;;0.90;;
16516;SDS011;8371;52.272;9.746;2023-11-19T05:06:56;0.80;;;0.80;;
16516;SDS011;8371;52.272;9.746;2023-11-19T05:09:22;0.70;;;0.70;;
16516;SDS011;8371;52.272;9.746;2023-11-19T05:11:48;0.80;;;0.80;;
16516;SDS011;8371;52.272;9.746;2023-11-19T05:14:13;0.70;;;0.70;;
16516;SDS011;8371;52.272;9.746;2023-11-19T05:16:40;0.80;;;0.80;;
16516;SDS011;8371;52.272;9.746;2023-11-19T05:19:06;0.73;;;0.73;;
16516;SDS011;8371;52.272;9.746;2023-11-19T05:21:32;0.83;;;0.83;;
16516;SDS011;8371;52.272;9.746;2023-11-19T05:23:58;0.87;;;0.87;;
16516;SDS011;8371;52.272;9.746;2023-11-19T05:26:24;0.80;;;0.80;;
16516;SDS011;8371;52.272;9.746;2023-11-19T05:28:50;1.30;;;0.97;;
16516;SDS011;8371;52.272;9.746;2023-11-19T05:31:16;0.83;;;0.83;;
16516;SDS011;8371;52.272;9.746;2023-11-19T05:33:43;1.30;;;1.30;;
16516;SDS011;8371;52.272;9.746;2023-11-19T05:36:10;1.10;;;1.10;;
16516;SDS011;8371;52.272;9.746;2023-11-19T05:38:37;1.00;;;1.00;;
16516;SDS011;8371;52.272;9.746;2023-11-19T05:41:04;1.03;;;1.03;;
16516;SDS011;8371;52.272;9.746;2023-11-19T05:43:30;1.03;;;1.03;;
16516;SDS011;8371;52.272;9.746;2023-11-19T05:45:56;1.17;;;1.17;;
16516;SDS011;8371;52.272;9.746;2023-11-19T05:48:22;1.07;;;1.07;;
16516;SDS011;8371;52.272;9.746;2023-11-19T05:50:48;1.10;;;1.10;;
16516;SDS011;8371;52.272;9.746;2023-11-19T05:53:15;1.60;;;1.53;;
16516;SDS011;8371;52.272;9.746;2023-11-19T05:55:41;1.40;;;1.40;;
16516;SDS011;8371;52.272;9.746;2023-11-19T05:58:12;1.10;;;1.00;;
16516;SDS011;8371;52.272;9.746;2023-11-19T06:00:38;1.30;;;1.30;;
16516;SDS011;8371;52.272;9.746;2023-11-19T06:03:06;1.30;;;1.20;;
16516;SDS011;8371;52.272;9.746;2023-11-19T06:05:32;1.40;;;1.40;;
16516;SDS011;8371;52.272;9.746;2023-11-19T06:07:58;1.27;;;1.17;;
16516;SDS011;8371;52.272;9.746;2023-11-19T06:10:24;1.27;;;1.23;;
16516;SDS011;8371;52.272;9.746;2023-11-19T06:12:55;1.40;;;1.30;;
16516;SDS011;8371;52.272;9.746;2023-11-19T06:15:22;1.67;;;1.57;;
16516;SDS011;8371;52.272;9.746;2023-11-19T06:17:48;1.10;;;1.10;;
16516;SDS011;8371;52.272;9.746;2023-11-19T06:20:16;1.00;;;1.00;;
16516;SDS011;8371;52.272;9.746;2023-11-19T06:22:42;1.60;;;1.50;;
16516;SDS011;8371;52.272;9.746;2023-11-19T06:25:09;1.70;;;1.60;;
16516;SDS011;8371;52.272;9.746;2023-11-19T06:27:36;3.10;;;1.37;;
16516;SDS011;8371;52.272;9.746;2023-11-19T06:30:02;2.60;;;1.70;;
16516;SDS011;8371;52.272;9.746;2023-11-19T06:32:28;1.93;;;1.60;;
16516;SDS011;8371;52.272;9.746;2023-11-19T06:34:54;2.17;;;1.63;;
16516;SDS011;8371;52.272;9.746;2023-11-19T06:37:20;2.27;;;2.10;;
16516;SDS011;8371;52.272;9.746;2023-11-19T06:39:45;4.03;;;2.17;;
16516;SDS011;8371;52.272;9.746;2023-11-19T06:42:11;4.70;;;1.77;;
16516;SDS011;8371;52.272;9.746;2023-11-19T06:44:37;2.53;;;1.50;;
16516;SDS011;8371;52.272;9.746;2023-11-19T06:47:02;3.93;;;1.93;;
16516;SDS011;8371;52.272;9.746;2023-11-19T06:49:28;2.37;;;1.83;;
16516;SDS011;8371;52.272;9.746;2023-11-19T06:51:54;7.33;;;1.63;;
16516;SDS011;8371;52.272;9.746;2023-11-19T06:54:19;2.93;;;1.77;;
16516;SDS011;8371;52.272;9.746;2023-11-19T06:56:46;5.10;;;2.10;;
16516;SDS011;8371;52.272;9.746;2023-11-19T06:59:12;1.67;;;1.57;;
16516;SDS011;8371;52.272;9.746;2023-11-19T07:01:38;5.53;;;1.90;;
16516;SDS011;8371;52.272;9.746;2023-11-19T07:04:03;1.60;;;1.50;;
16516;SDS011;8371;52.272;9.746;2023-11-19T07:06:31;2.77;;;2.23;;
16516;SDS011;8371;52.272;9.746;2023-11-19T07:08:57;2.27;;;1.40;;
16516;SDS011;8371;52.272;9.746;2023-11-19T07:11:24;4.93;;;1.90;;
16516;SDS011;8371;52.272;9.746;2023-11-19T07:13:49;1.83;;;1.60;;
16516;SDS011;8371;52.272;9.746;2023-11-19T07:16:15;2.20;;;1.70;;
16516;SDS011;8371;52.272;9.746;2023-11-19T07:18:41;8.13;;;2.20;;
16516;SDS011;8371;52.272;9.746;2023-11-19T07:21:08;4.47;;;1.83;;
16516;SDS011;8371;52.272;9.746;2023-11-19T07:23:35;4.40;;;1.80;;
16516;SDS011;8371;52.272;9.746;2023-11-19T07:26:04;4.30;;;2.07;;
16516;SDS011;8371;52.272;9.746;2023-11-19T07:28:35;4.47;;;2.20;;
16516;SDS011;8371;52.272;9.746;2023-11-19T07:31:00;4.77;;;1.40;;
16516;SDS011;8371;52.272;9.746;2023-11-19T07:33:26;3.47;;;2.00;;
16516;SDS011;8371;52.272;9.746;2023-11-19T07:35:52;3.77;;;2.07;;
16516;SDS011;8371;52.272;9.746;2023-11-19T07:38:17;7.10;;;2.00;;
16516;SDS011;8371;52.272;9.746;2023-11-19T07:40:43;3.50;;;1.93;;
16516;SDS011;8371;52.272;9.746;2023-11-19T07:43:09;7.27;;;1.83;;
16516;SDS011;8371;52.272;9.746;2023-11-19T07:45:35;7.77;;;2.33;;
16516;SDS011;8371;52.272;9.746;2023-11-19T07:48:00;6.53;;;1.90;;
16516;SDS011;8371;52.272;9.746;2023-11-19T07:50:27;3.70;;;2.10;;
16516;SDS011;8371;52.272;9.746;2023-11-19T07:52:52;6.53;;;2.30;;
16516;SDS011;8371;52.272;9.746;2023-11-19T07:55:18;4.00;;;1.87;;
16516;SDS011;8371;52.272;9.746;2023-11-19T07:57:44;3.87;;;2.20;;
16516;SDS011;8371;52.272;9.746;2023-11-19T08:00:10;6.03;;;2.17;;
16516;SDS011;8371;52.272;9.746;2023-11-19T08:02:37;7.87;;;2.53;;
16516;SDS011;8371;52.272;9.746;2023-11-19T08:05:04;7.63;;;2.53;;
16516;SDS011;8371;52.272;9.746;2023-11-19T08:07:30;5.77;;;2.07;;
16516;SDS011;8371;52.272;9.746;2023-11-19T08:09:56;10.83;;;3.23;;
16516;SDS011;8371;52.272;9.746;2023-11-19T08:12:21;4.47;;;2.40;;
16516;SDS011;8371;52.272;9.746;2023-11-19T08:14:47;6.73;;;2.33;;
16516;SDS011;8371;52.272;9.746;2023-11-19T08:17:17;5.13;;;2.20;;
16516;SDS011;8371;52.272;9.746;2023-11-19T08:19:42;5.63;;;2.97;;
16516;SDS011;8371;52.272;9.746;2023-11-19T08:22:08;3.87;;;2.47;;
16516;SDS011;8371;52.272;9.746;2023-11-19T08:24:37;4.27;;;2.23;;
16516;SDS011;8371;52.272;9.746;2023-11-19T08:27:05;5.30;;;2.20;;
16516;SDS011;8371;52.272;9.746;2023-11-19T08:29:31;2.57;;;2.33;;
16516;SDS011;8371;52.272;9.746;2023-11-19T08:31:57;4.37;;;2.57;;
16516;SDS011;8371;52.272;9.746;2023-11-19T08:34:22;5.10;;;3.23;;
16516;SDS011;8371;52.272;9.746;2023-11-19T08:36:51;9.27;;;3.53;;
16516;SDS011;8371;52.272;9.746;2023-11-19T08:39:18;5.30;;;3.27;;
16516;SDS011;8371;52.272;9.746;2023-11-19T08:41:47;6.87;;;3.57;;
16516;SDS011;8371;52.272;9.746;2023-11-19T08:44:13;11.00;;;3.53;;
16516;SDS011;8371;52.272;9.746;2023-11-19T08:46:45;3.97;;;3.20;;
16516;SDS011;8371;52.272;9.746;2023-11-19T08:49:14;5.30;;;2.93;;
16516;SDS011;8371;52.272;9.746;2023-11-19T08:51:40;7.53;;;3.33;;
16516;SDS011;8371;52.272;9.746;2023-11-19T08:54:06;4.80;;;2.47;;
16516;SDS011;8371;52.272;9.746;2023-11-19T08:56:32;5.40;;;2.17;;
16516;SDS011;8371;52.272;9.746;2023-11-19T08:59:00;6.33;;;2.83;;
16516;SDS011;8371;52.272;9.746;2023-11-19T09:01:25;4.30;;;2.43;;
16516;SDS011;8371;52.272;9.746;2023-11-19T09:03:51;6.80;;;2.53;;
16516;SDS011;8371;52.272;9.746;2023-11-19T09:06:17;4.80;;;2.30;;
16516;SDS011;8371;52.272;9.746;2023-11-19T09:08:43;7.80;;;2.60;;
16516;SDS011;8371;52.272;9.746;2023-11-19T09:11:09;4.17;;;2.37;;
16516;SDS011;8371;52.272;9.746;2023-11-19T09:13:35;5.40;;;2.70;;
16516;SDS011;8371;52.272;9.746;2023-11-19T09:16:01;4.70;;;2.40;;
16516;SDS011;8371;52.272;9.746;2023-11-19T09:18:30;4.43;;;2.70;;
16516;SDS011;8371;52.272;9.746;2023-11-19T09:20:57;2.90;;;2.53;;
16516;SDS011;8371;52.272;9.746;2023-11-19T09:23:23;13.67;;;3.27;;
16516;SDS011;8371;52.272;9.746;2023-11-19T09:25:54;4.63;;;2.43;;
16516;SDS011;8371;52.272;9.746;2023-11-19T09:28:20;6.97;;;2.77;;
16516;SDS011;8371;52.272;9.746;2023-11-19T09:30:46;6.90;;;2.77;;
16516;SDS011;8371;52.272;9.746;2023-11-19T09:33:11;5.23;;;2.33;;
16516;SDS011;8371;52.272;9.746;2023-11-19T09:35:37;9.10;;;2.93;;
16516;SDS011;8371;52.272;9.746;2023-11-19T09:38:03;8.83;;;2.80;;
16516;SDS011;8371;52.272;9.746;2023-11-19T09:40:30;9.17;;;3.33;;
16516;SDS011;8371;52.272;9.746;2023-11-19T09:42:57;3.63;;;2.50;;
16516;SDS011;8371;52.272;9.746;2023-11-19T09:45:22;4.93;;;2.30;;
16516;SDS011;8371;52.272;9.746;2023-11-19T09:47:52;5.07;;;2.33;;
16516;SDS011;8371;52.272;9.746;2023-11-19T09:50:20;9.13;;;2.97;;
16516;SDS011;8371;52.272;9.746;2023-11-19T09:52:46;7.03;;;2.10;;
16516;SDS011;8371;52.272;9.746;2023-11-19T09:55:12;4.73;;;2.47;;
16516;SDS011;8371;52.272;9.746;2023-11-19T09:57:39;6.50;;;2.80;;
16516;SDS011;8371;52.272;9.746;2023-11-19T10:00:07;9.67;;;3.33;;
16516;SDS011;8371;52.272;9.746;2023-11-19T10:02:35;5.93;;;2.63;;
16516;SDS011;8371;52.272;9.746;2023-11-19T10:05:08;4.93;;;3.07;;
16516;SDS011;8371;52.272;9.746;2023-11-19T10:07:35;7.73;;;2.43;;
16516;SDS011;8371;52.272;9.746;2023-11-19T10:10:05;8.10;;;2.60;;
16516;SDS011;8371;52.272;9.746;2023-11-19T10:12:32;7.17;;;2.93;;
16516;SDS011;8371;52.272;9.746;2023-11-19T10:14:59;5.20;;;2.57;;
16516;SDS011;8371;52.272;9.746;2023-11-19T10:17:28;8.23;;;2.53;;
16516;SDS011;8371;52.272;9.746;2023-11-19T10:19:55;9.17;;;3.20;;
16516;SDS011;8371;52.272;9.746;2023-11-19T10:22:22;6.33;;;2.43;;
16516;SDS011;8371;52.272;9.746;2023-11-19T10:24:48;8.63;;;2.90;;
16516;SDS011;8371;52.272;9.746;2023-11-19T10:27:14;6.13;;;2.93;;
16516;SDS011;8371;52.272;9.746;2023-11-19T10:29:43;7.53;;;2.53;;
16516;SDS011;8371;52.272;9.746;2023-11-19T10:32:12;9.30;;;3.47;;
16516;SDS011;8371;52.272;9.746;2023-11-19T10:34:39;3.87;;;2.30;;
16516;SDS011;8371;52.272;9.746;2023-11-19T10:37:05;4.27;;;2.33;;
16516;SDS011;8371;52.272;9.746;2023-11-19T10:39:51;3.50;;;1.83;;
16516;SDS011;8371;52.272;9.746;2023-11-19T10:42:14;7.90;;;2.37;;
16516;SDS011;8371;52.272;9.746;2023-11-19T10:44:33;5.40;;;2.83;;
16516;SDS011;8371;52.272;9.746;2023-11-19T10:47:01;3.43;;;2.23;;
16516;SDS011;8371;52.272;9.746;2023-11-19T10:49:26;8.40;;;2.40;;
16516;SDS011;8371;52.272;9.746;2023-11-19T10:51:52;4.47;;;1.67;;
16516;SDS011;8371;52.272;9.746;2023-11-19T10:54:22;3.43;;;1.97;;
16516;SDS011;8371;52.272;9.746;2023-11-19T10:56:50;5.00;;;1.83;;
16516;SDS011;8371;52.272;9.746;2023-11-19T10:59:17;5.83;;;2.23;;
16516;SDS011;8371;52.272;9.746;2023-11-19T11:01:45;3.70;;;1.90;;
16516;SDS011;8371;52.272;9.746;2023-11-19T11:04:15;7.60;;;2.97;;
16516;SDS011;8371;52.272;9.746;2023-11-19T11:06:44;5.90;;;2.13;;
16516;SDS011;8371;52.272;9.746;2023-11-19T11:09:11;7.87;;;3.33;;
16516;SDS011;8371;52.272;9.746;2023-11-19T11:11:42;4.23;;;2.10;;
16516;SDS011;8371;52.272;9.746;2023-11-19T11:14:08;9.17;;;3.00;;
16516;SDS011;8371;52.272;9.746;2023-11-19T11:16:44;6.00;;;3.70;;
16516;SDS011;8371;52.272;9.746;2023-11-19T11:19:12;6.50;;;2.63;;
16516;SDS011;8371;52.272;9.746;2023-11-19T11:21:38;5.33;;;2.43;;
16516;SDS011;8371;52.272;9.746;2023-11-19T11:29:25;8.53;;;2.50;;
16516;SDS011;8371;52.272;9.746;2023-11-19T11:32:08;4.87;;;2.37;;
16516;SDS011;8371;52.272;9.746;2023-11-19T11:40:02;4.73;;;2.47;;
16516;SDS011;8371;52.272;9.746;2023-11-19T11:42:33;4.73;;;2.40;;
16516;SDS011;8371;52.272;9.746;2023-11-19T11:44:59;6.33;;;2.60;;
16516;SDS011;8371;52.272;9.746;2023-11-19T11:47:50;4.60;;;2.33;;
16516;SDS011;8371;52.272;9.746;2023-11-19T11:50:12;5.67;;;2.47;;
16516;SDS011;8371;52.272;9.746;2023-11-19T11:55:34;6.23;;;2.50;;
16516;SDS011;8371;52.272;9.746;2023-11-19T11:58:05;7.00;;;2.40;;
16516;SDS011;8371;52.272;9.746;2023-11-19T12:00:32;9.07;;;3.27;;
16516;SDS011;8371;52.272;9.746;2023-11-19T12:03:00;7.60;;;2.93;;
16516;SDS011;8371;52.272;9.746;2023-11-19T12:05:27;7.33;;;2.50;;
16516;SDS011;8371;52.272;9.746;2023-11-19T12:07:56;4.67;;;2.40;;
16516;SDS011;8371;52.272;9.746;2023-11-19T12:10:25;4.90;;;2.63;;
16516;SDS011;8371;52.272;9.746;2023-11-19T12:12:58;9.67;;;2.93;;
16516;SDS011;8371;52.272;9.746;2023-11-19T12:15:25;7.20;;;3.17;;
16516;SDS011;8371;52.272;9.746;2023-11-19T12:17:55;6.53;;;3.00;;
16516;SDS011;8371;52.272;9.746;2023-11-19T12:20:22;5.80;;;2.53;;
16516;SDS011;8371;52.272;9.746;2023-11-19T12:22:50;6.37;;;2.90;;
16516;SDS011;8371;52.272;9.746;2023-11-19T12:25:17;5.90;;;2.70;;
16516;SDS011;8371;52.272;9.746;2023-11-19T12:27:46;8.20;;;2.63;;
16516;SDS011;8371;52.272;9.746;2023-11-19T12:30:17;7.03;;;2.50;;
16516;SDS011;8371;52.272;9.746;2023-11-19T12:32:45;6.03;;;2.70;;
16516;SDS011;8371;52.272;9.746;2023-11-19T12:35:12;6.83;;;3.23;;
16516;SDS011;8371;52.272;9.746;2023-11-19T12:37:49;11.77;;;3.43;;
16516;SDS011;8371;52.272;9.746;2023-11-19T12:40:23;9.63;;;3.03;;
16516;SDS011;8371;52.272;9.746;2023-11-19T12:42:50;5.90;;;2.77;;
16516;SDS011;8371;52.272;9.746;2023-11-19T12:45:18;11.13;;;2.87;;
16516;SDS011;8371;52.272;9.746;2023-11-19T12:47:46;5.63;;;2.50;;
16516;SDS011;8371;52.272;9.746;2023-11-19T12:50:13;3.87;;;2.67;;
16516;SDS011;8371;52.272;9.746;2023-11-19T12:52:39;10.40;;;2.07;;
16516;SDS011;8371;52.272;9.746;2023-11-19T12:55:06;7.53;;;2.63;;
16516;SDS011;8371;52.272;9.746;2023-11-19T12:57:53;7.03;;;2.70;;
16516;SDS011;8371;52.272;9.746;2023-11-19T13:00:23;8.17;;;2.60;;
16516;SDS011;8371;52.272;9.746;2023-11-19T13:02:51;12.40;;;2.80;;
16516;SDS011;8371;52.272;9.746;2023-11-19T13:08:05;7.40;;;3.07;;
16516;SDS011;8371;52.272;9.746;2023-11-19T13:10:33;5.47;;;2.43;;
16516;SDS011;8371;52.272;9.746;2023-11-19T13:13:02;5.20;;;2.20;;
16516;SDS011;8371;52.272;9.746;2023-11-19T13:15:33;4.20;;;2.40;;
16516;SDS011;8371;52.272;9.746;2023-11-19T13:18:00;8.63;;;2.37;;
16516;SDS011;8371;52.272;9.746;2023-11-19T13:20:27;7.90;;;2.70;;
16516;SDS011;8371;52.272;9.746;2023-11-19T13:22:56;5.50;;;2.63;;
16516;SDS011;8371;52.272;9.746;2023-11-19T13:25:25;5.67;;;2.87;;
16516;SDS011;8371;52.272;9.746;2023-11-19T13:27:52;4.80;;;2.57;;
16516;SDS011;8371;52.272;9.746;2023-11-19T13:30:18;5.83;;;3.33;;
16516;SDS011;8371;52.272;9.746;2023-11-19T13:32:44;3.07;;;2.10;;
16516;SDS011;8371;52.272;9.746;2023-11-19T13:35:15;4.13;;;2.23;;
16516;SDS011;8371;52.272;9.746;2023-11-19T13:37:39;6.43;;;2.73;;
16516;SDS011;8371;52.272;9.746;2023-11-19T13:40:08;6.10;;;2.50;;
16516;SDS011;8371;52.272;9.746;2023-11-19T13:42:42;3.27;;;2.10;;
16516;SDS011;8371;52.272;9.746;2023-11-19T13:45:11;7.20;;;2.90;;
16516;SDS011;8371;52.272;9.746;2023-11-19T13:47:42;5.37;;;2.33;;
16516;SDS011;8371;52.272;9.746;2023-11-19T13:50:13;5.30;;;2.13;;
16516;SDS011;8371;52.272;9.746;2023-11-19T13:52:41;7.13;;;2.47;;
16516;SDS011;8371;52.272;9.746;2023-11-19T13:55:11;4.23;;;2.13;;
16516;SDS011;8371;52.272;9.746;2023-11-19T13:57:37;4.60;;;2.60;;
16516;SDS011;8371;52.272;9.746;2023-11-19T14:00:04;2.90;;;2.20;;
16516;SDS011;8371;52.272;9.746;2023-11-19T14:02:35;5.67;;;2.90;;
16516;SDS011;8371;52.272;9.746;2023-11-19T14:05:00;3.77;;;2.27;;
16516;SDS011;8371;52.272;9.746;2023-11-19T14:07:27;3.97;;;2.07;;
16516;SDS011;8371;52.272;9.746;2023-11-19T14:09:53;6.93;;;2.70;;
16516;SDS011;8371;52.272;9.746;2023-11-19T14:12:19;7.13;;;2.63;;
16516;SDS011;8371;52.272;9.746;2023-11-19T14:14:45;6.07;;;2.80;;
16516;SDS011;8371;52.272;9.746;2023-11-19T14:17:11;5.60;;;2.43;;
16516;SDS011;8371;52.272;9.746;2023-11-19T14:19:37;4.07;;;2.23;;
16516;SDS011;8371;52.272;9.746;2023-11-19T14:22:04;7.80;;;2.23;;
16516;SDS011;8371;52.272;9.746;2023-11-19T14:24:31;2.83;;;2.43;;
16516;SDS011;8371;52.272;9.746;2023-11-19T14:26:56;8.07;;;3.17;;
16516;SDS011;8371;52.272;9.746;2023-11-19T14:29:24;5.77;;;2.87;;
16516;SDS011;8371;52.272;9.746;2023-11-19T14:31:51;8.80;;;3.87;;
16516;SDS011;8371;52.272;9.746;2023-11-19T14:34:19;7.13;;;2.77;;
16516;SDS011;8371;52.272;9.746;2023-11-19T14:36:46;4.17;;;2.67;;
16516;SDS011;8371;52.272;9.746;2023-11-19T14:39:12;3.67;;;2.60;;
16516;SDS011;8371;52.272;9.746;2023-11-19T14:41:38;3.97;;;2.70;;
16516;SDS011;8371;52.272;9.746;2023-11-19T14:44:04;11.97;;;3.27;;
16516;SDS011;8371;52.272;9.746;2023-11-19T14:46:31;3.17;;;2.30;;
16516;SDS011;8371;52.272;9.746;2023-11-19T14:48:56;3.03;;;2.73;;
16516;SDS011;8371;52.272;9.746;2023-11-19T14:51:22;4.13;;;2.10;;
16516;SDS011;8371;52.272;9.746;2023-11-19T14:53:48;3.10;;;2.33;;
16516;SDS011;8371;52.272;9.746;2023-11-19T14:56:14;4.77;;;2.37;;
16516;SDS011;8371;52.272;9.746;2023-11-19T14:58:39;5.83;;;2.00;;
16516;SDS011;8371;52.272;9.746;2023-11-19T15:01:06;3.97;;;2.53;;
16516;SDS011;8371;52.272;9.746;2023-11-19T15:03:32;6.37;;;2.77;;
16516;SDS011;8371;52.272;9.746;2023-11-19T15:05:59;2.70;;;2.50;;
16516;SDS011;8371;52.272;9.746;2023-11-19T15:08:24;7.97;;;2.83;;
16516;SDS011;8371;52.272;9.746;2023-11-19T15:10:50;5.70;;;3.00;;
16516;SDS011;8371;52.272;9.746;2023-11-19T15:13:18;4.80;;;2.57;;
16516;SDS011;8371;52.272;9.746;2023-11-19T15:15:44;4.67;;;2.87;;